createdAt,value
2019-02-07T00:01:39.461Z,-4.80
2019-02-07T00:07:08.732Z,-4.80
2019-02-07T00:12:38.011Z,-4.90
2019-02-07T00:18:07.526Z,-4.90
2019-02-07T00:23:36.814Z,-4.80
2019-02-07T00:29:06.160Z,-5.00
2019-02-07T00:34:35.512Z,-5.10
2019-02-07T00:40:17.987Z,-5.20
2019-02-07T00:45:47.719Z,-5.30
2019-02-07T00:51:17.164Z,-5.20
2019-02-07T00:56:46.457Z,-5.40
2019-02-07T01:02:15.733Z,-5.40
2019-02-07T01:07:45.519Z,-5.30
2019-02-07T01:13:14.805Z,-5.30
2019-02-07T01:18:44.080Z,-5.20
2019-02-07T01:24:13.359Z,-5.10
2019-02-07T01:29:42.646Z,-5.10
2019-02-07T01:35:13.104Z,-5.10
2019-02-07T01:40:42.453Z,-5.10
2019-02-07T01:46:11.722Z,-5.00
2019-02-07T01:51:41.001Z,-5.00
2019-02-07T01:57:10.277Z,-4.90
2019-02-07T02:02:39.704Z,-4.90
2019-02-07T02:08:09.058Z,-4.80
2019-02-07T02:13:38.404Z,-4.80
2019-02-07T02:19:07.683Z,-4.80
2019-02-07T02:24:36.969Z,-4.70
2019-02-07T02:30:26.715Z,-4.70
2019-02-07T02:35:56.175Z,-4.50
2019-02-07T02:41:25.470Z,-4.50
2019-02-07T02:46:54.750Z,-4.40
2019-02-07T02:52:24.023Z,-4.60
2019-02-07T02:57:53.649Z,-4.60
2019-02-07T03:03:24.976Z,-4.50
2019-02-07T03:08:55.915Z,-4.50
2019-02-07T03:14:26.964Z,-4.70
2019-02-07T03:19:58.283Z,-4.80
2019-02-07T03:25:33.025Z,-4.80
2019-02-07T03:31:20.514Z,-4.90
2019-02-07T03:36:54.306Z,-5.00
2019-02-07T03:42:37.283Z,-5.10
2019-02-07T03:48:11.465Z,-5.10
2019-02-07T03:53:48.157Z,-5.00
2019-02-07T03:59:19.073Z,-5.00
2019-02-07T04:05:06.549Z,-4.90
2019-02-07T04:10:37.489Z,-4.80
2019-02-07T04:16:17.180Z,-4.70
2019-02-07T04:21:48.378Z,-4.70
2019-02-07T04:27:28.292Z,-4.60
2019-02-07T04:33:02.213Z,-4.60
2019-02-07T04:38:33.129Z,-4.60
2019-02-07T04:44:07.004Z,-4.50
2019-02-07T04:49:37.930Z,-4.50
2019-02-07T04:55:23.777Z,-4.70
2019-02-07T05:00:54.690Z,-4.70
2019-02-07T05:06:28.529Z,-4.70
2019-02-07T05:12:05.491Z,-4.70
2019-02-07T05:17:36.419Z,-4.60
2019-02-07T05:23:16.393Z,-4.70
2019-02-07T05:28:53.277Z,-4.80
2019-02-07T05:34:24.216Z,-4.80
2019-02-07T05:40:00.775Z,-4.90
2019-02-07T05:45:41.236Z,-5.00
2019-02-07T05:51:15.125Z,-5.00
2019-02-07T05:56:46.050Z,-5.00
2019-02-07T06:02:29.105Z,-5.10
2019-02-07T06:08:09.785Z,-5.20
2019-02-07T06:13:43.435Z,-5.40
2019-02-07T06:19:31.386Z,-5.40
2019-02-07T06:25:04.856Z,-5.50
2019-02-07T06:30:47.746Z,-5.60
2019-02-07T06:36:27.333Z,-5.60
2019-02-07T06:42:00.677Z,-5.60
2019-02-07T06:47:48.111Z,-5.50
2019-02-07T06:53:37.785Z,-5.50
2019-02-07T06:59:08.774Z,-5.50
2019-02-07T07:04:39.702Z,-5.40
2019-02-07T07:10:14.109Z,-5.30
2019-02-07T07:15:48.064Z,-5.30
2019-02-07T07:21:33.853Z,-5.20
2019-02-07T07:27:04.789Z,-5.00
2019-02-07T07:38:32.940Z,-4.60
2019-02-07T07:44:04.251Z,-4.40
2019-02-07T07:49:35.583Z,-4.20
2019-02-07T07:55:14.664Z,-4.00
2019-02-07T08:00:48.761Z,-3.70
2019-02-07T08:06:22.757Z,-3.40
2019-02-07T08:12:05.934Z,-3.10
2019-02-07T08:17:47.053Z,-2.80
2019-02-07T08:23:12.204Z,-2.50
2019-02-07T08:28:46.183Z,-2.30
2019-02-07T08:34:23.141Z,-2.00
2019-02-07T08:40:06.855Z,-1.70
2019-02-07T08:45:38.389Z,-1.40
2019-02-07T08:51:15.264Z,-1.10
2019-02-07T08:56:46.326Z,-0.80
2019-02-07T09:02:23.262Z,-0.40
2019-02-07T09:07:55.510Z,0.10
2019-02-07T09:13:27.902Z,0.40
2019-02-07T09:19:15.297Z,0.80
2019-02-07T09:24:49.354Z,1.10
2019-02-07T09:30:38.138Z,1.50
2019-02-07T09:36:25.806Z,1.60
2019-02-07T09:42:12.363Z,1.90
2019-02-07T09:47:49.300Z,2.10
2019-02-07T09:53:26.615Z,2.40
2019-02-07T09:58:57.737Z,2.50
2019-02-07T10:04:45.085Z,2.60
2019-02-07T10:10:31.607Z,2.80
2019-02-07T10:16:18.891Z,3.00
2019-02-07T10:21:59.009Z,3.20
2019-02-07T10:27:30.182Z,3.10
2019-02-07T10:33:13.471Z,3.20
2019-02-07T10:38:56.729Z,3.30
2019-02-07T10:44:27.888Z,3.50
2019-02-07T10:50:08.109Z,3.70
2019-02-07T10:55:39.137Z,3.90
2019-02-07T11:01:16.422Z,4.00
2019-02-07T11:07:05.684Z,4.30
2019-02-07T11:12:46.034Z,4.50
2019-02-07T11:18:19.683Z,4.70
2019-02-07T11:23:53.716Z,4.90
2019-02-07T11:29:27.667Z,5.20
2019-02-07T11:35:14.241Z,5.40
2019-02-07T11:40:54.567Z,5.50
2019-02-07T11:46:25.671Z,5.60
2019-02-07T11:51:58.106Z,5.70
2019-02-07T11:57:32.142Z,5.90
2019-02-07T12:03:05.960Z,6.20
2019-02-07T12:08:52.303Z,6.40
2019-02-07T12:14:35.625Z,6.60
2019-02-07T12:20:11.315Z,6.80
2019-02-07T12:25:52.710Z,7.00
2019-02-07T12:31:29.499Z,7.10
2019-02-07T12:37:07.363Z,7.20
2019-02-07T12:42:47.253Z,7.30
2019-02-07T12:48:29.894Z,7.30
2019-02-07T12:54:16.892Z,7.20
2019-02-07T12:59:48.014Z,7.10
2019-02-07T13:05:34.413Z,7.10
2019-02-07T13:11:21.614Z,7.10
2019-02-07T13:17:07.687Z,6.80
2019-02-07T13:22:50.696Z,6.70
2019-02-07T13:28:24.581Z,6.60
2019-02-07T13:34:10.699Z,6.50
2019-02-07T13:39:44.605Z,6.30
2019-02-07T13:45:19.080Z,6.20
2019-02-07T13:50:50.116Z,6.10
2019-02-07T13:56:38.504Z,6.00
2019-02-07T14:02:20.006Z,5.80
2019-02-07T14:07:57.291Z,5.70
2019-02-07T14:13:31.498Z,5.60
2019-02-07T14:19:03.221Z,5.40
2019-02-07T14:24:34.420Z,5.30
2019-02-07T14:30:15.767Z,5.20
2019-02-07T14:36:03.168Z,5.10
2019-02-07T14:41:36.711Z,4.90
2019-02-07T14:47:06.071Z,4.70
2019-02-07T14:52:35.770Z,4.50
2019-02-07T14:58:05.211Z,4.40
2019-02-07T15:03:34.531Z,4.20
2019-02-07T15:09:07.166Z,4.10
2019-02-07T15:14:36.492Z,3.90
2019-02-07T15:20:09.415Z,3.80
2019-02-07T15:25:38.799Z,3.60
2019-02-07T15:31:08.239Z,3.60
2019-02-07T15:36:37.697Z,3.50
2019-02-07T15:42:07.562Z,3.40
2019-02-07T15:47:37.030Z,3.40
2019-02-07T15:53:06.777Z,3.40
2019-02-07T15:58:43.540Z,3.50
2019-02-07T16:04:14.721Z,3.60
2019-02-07T16:09:44.461Z,3.80
2019-02-07T16:15:15.105Z,4.20
2019-02-07T16:20:48.826Z,4.30
2019-02-07T16:26:15.766Z,4.50
2019-02-07T16:31:45.256Z,4.60
2019-02-07T16:37:15.262Z,4.70
2019-02-07T16:42:44.669Z,4.70
2019-02-07T16:48:14.037Z,4.70
2019-02-07T16:53:43.421Z,4.70
2019-02-07T16:59:12.950Z,4.70
2019-02-07T17:04:42.302Z,4.70
2019-02-07T17:10:39.603Z,4.60
2019-02-07T17:16:09.488Z,4.60
2019-02-07T17:21:38.887Z,4.60
2019-02-07T17:27:08.414Z,4.60
2019-02-07T17:32:37.740Z,4.60
2019-02-07T17:38:07.370Z,4.60
2019-02-07T17:43:36.909Z,4.50
2019-02-07T17:49:06.799Z,4.40
2019-02-07T17:54:36.161Z,4.40
2019-02-07T18:00:20.883Z,4.40
2019-02-07T18:05:50.372Z,4.40
2019-02-07T18:11:19.831Z,4.40
2019-02-07T18:16:49.289Z,4.40
2019-02-07T18:22:18.811Z,4.40
2019-02-07T18:27:48.746Z,4.40
2019-02-07T18:33:18.139Z,4.30
2019-02-07T18:38:47.703Z,4.30
2019-02-07T18:44:17.144Z,4.40
2019-02-07T18:49:46.509Z,4.30
2019-02-07T18:55:16.511Z,4.30
2019-02-07T19:00:45.993Z,4.30
2019-02-07T19:06:15.587Z,4.30
2019-02-07T19:11:44.928Z,4.30
2019-02-07T19:17:14.273Z,4.20
2019-02-07T19:22:43.798Z,4.20
2019-02-07T19:28:13.382Z,4.20
2019-02-07T19:33:43.134Z,4.20
2019-02-07T19:39:13.693Z,4.20
2019-02-07T19:44:43.211Z,4.20
2019-02-07T19:50:27.412Z,4.20
2019-02-07T19:55:57.001Z,4.20
2019-02-07T20:01:26.987Z,4.20
2019-02-07T20:06:56.766Z,4.20
2019-02-07T20:12:26.846Z,4.20
2019-02-07T20:17:59.613Z,4.10
2019-02-07T20:23:28.370Z,4.10
2019-02-07T20:29:00.838Z,4.10
2019-02-07T20:34:31.078Z,4.10
2019-02-07T20:40:00.771Z,4.10
2019-02-07T20:45:30.232Z,4.10
2019-02-07T20:50:59.761Z,4.10
2019-02-07T20:56:29.631Z,4.10
2019-02-07T21:01:59.511Z,4.00
2019-02-07T21:07:29.017Z,4.00
2019-02-07T21:13:01.661Z,4.00
2019-02-07T21:18:31.271Z,4.00
2019-02-07T21:24:00.748Z,4.00
2019-02-07T21:29:30.252Z,4.00
2019-02-07T21:34:59.744Z,4.00
2019-02-07T21:40:31.165Z,4.00
2019-02-07T21:46:00.642Z,4.00
2019-02-07T21:51:30.040Z,4.00
2019-02-07T21:56:59.641Z,4.00
2019-02-07T22:02:29.393Z,3.90
2019-02-07T22:07:59.031Z,3.90
2019-02-07T22:13:31.809Z,3.80
2019-02-07T22:19:01.441Z,3.80
2019-02-07T22:24:31.591Z,3.80
2019-02-07T22:30:02.050Z,3.70
2019-02-07T22:35:35.041Z,3.70
2019-02-07T22:41:04.733Z,3.70
2019-02-07T22:46:34.801Z,3.60
2019-02-07T22:52:04.351Z,3.60
2019-02-07T22:57:33.691Z,3.60
2019-02-07T23:03:09.646Z,3.60
2019-02-07T23:08:39.176Z,3.60
2019-02-07T23:14:09.486Z,3.60
2019-02-07T23:19:39.793Z,3.50
2019-02-07T23:25:11.004Z,3.40
2019-02-07T23:30:40.483Z,3.40
2019-02-07T23:36:09.944Z,3.30
2019-02-07T23:41:39.375Z,3.20
2019-02-07T23:47:08.847Z,3.20
2019-02-07T23:52:39.310Z,3.10
2019-02-07T23:58:08.846Z,3.00
